sensor_id;sensor_type;location;lat;lon;timestamp;pressure;altitude;pressure_sealevel;temperature;humidity
70971;BME280;58632;51.718;19.446;2023-08-06T00:00:17;98387.72;;;19.28;100.00
70971;BME280;58632;51.718;19.446;2023-08-06T00:03:05;98364.00;;;19.30;100.00
70971;BME280;58632;51.718;19.446;2023-08-06T00:05:31;98351.82;;;19.27;100.00
70971;BME280;58632;51.718;19.446;2023-08-06T00:07:59;98336.41;;;19.29;100.00
70971;BME280;58632;51.718;19.446;2023-08-06T00:10:25;98309.79;;;19.28;100.00
70971;BME280;58632;51.718;19.446;2023-08-06T00:12:51;98282.52;;;19.28;100.00
70971;BME280;58632;51.718;19.446;2023-08-06T00:15:16;98271.96;;;19.28;100.00
70971;BME280;58632;51.718;19.446;2023-08-06T00:17:42;98265.02;;;19.21;100.00
70971;BME280;58632;51.718;19.446;2023-08-06T00:20:08;98280.50;;;19.17;100.00
70971;BME280;58632;51.718;19.446;2023-08-06T00:22:35;98301.91;;;19.24;100.00
70971;BME280;58632;51.718;19.446;2023-08-06T00:25:02;98315.47;;;19.30;100.00
70971;BME280;58632;51.718;19.446;2023-08-06T00:27:27;98331.98;;;19.34;100.00
70971;BME280;58632;51.718;19.446;2023-08-06T00:29:53;98352.86;;;19.39;100.00
70971;BME280;58632;51.718;19.446;2023-08-06T00:32:19;98368.89;;;19.38;100.00
70971;BME280;58632;51.718;19.446;2023-08-06T00:34:44;98382.95;;;19.42;100.00
70971;BME280;58632;51.718;19.446;2023-08-06T00:37:10;98395.84;;;19.46;100.00
70971;BME280;58632;51.718;19.446;2023-08-06T00:39:35;98395.83;;;19.46;100.00
70971;BME280;58632;51.718;19.446;2023-08-06T00:42:00;98394.19;;;19.52;100.00
70971;BME280;58632;51.718;19.446;2023-08-06T00:44:26;98393.67;;;19.55;100.00
70971;BME280;58632;51.718;19.446;2023-08-06T00:46:52;98385.95;;;19.57;100.00
70971;BME280;58632;51.718;19.446;2023-08-06T00:49:18;98369.23;;;19.55;100.00
70971;BME280;58632;51.718;19.446;2023-08-06T00:51:44;98371.73;;;19.51;100.00
70971;BME280;58632;51.718;19.446;2023-08-06T00:54:10;98363.00;;;19.46;100.00
70971;BME280;58632;51.718;19.446;2023-08-06T00:56:36;98358.12;;;19.43;100.00
70971;BME280;58632;51.718;19.446;2023-08-06T00:59:06;98343.16;;;19.47;100.00
70971;BME280;58632;51.718;19.446;2023-08-06T01:01:32;98321.25;;;19.48;100.00
70971;BME280;58632;51.718;19.446;2023-08-06T01:03:59;98334.21;;;19.46;100.00
70971;BME280;58632;51.718;19.446;2023-08-06T01:06:45;98359.40;;;19.49;100.00
70971;BME280;58632;51.718;19.446;2023-08-06T01:09:21;98350.82;;;19.50;100.00
70971;BME280;58632;51.718;19.446;2023-08-06T01:12:06;98344.77;;;19.52;100.00
70971;BME280;58632;51.718;19.446;2023-08-06T01:15:11;98338.13;;;19.55;100.00
70971;BME280;58632;51.718;19.446;2023-08-06T01:17:40;98346.09;;;19.54;100.00
70971;BME280;58632;51.718;19.446;2023-08-06T01:20:06;98346.48;;;19.48;100.00
70971;BME280;58632;51.718;19.446;2023-08-06T01:22:32;98325.73;;;19.45;100.00
70971;BME280;58632;51.718;19.446;2023-08-06T01:24:58;98322.59;;;19.50;100.00
70971;BME280;58632;51.718;19.446;2023-08-06T01:27:25;98328.70;;;19.50;100.00
70971;BME280;58632;51.718;19.446;2023-08-06T01:32:49;98295.91;;;19.46;100.00
70971;BME280;58632;51.718;19.446;2023-08-06T01:35:17;98276.30;;;19.42;100.00
70971;BME280;58632;51.718;19.446;2023-08-06T01:37:45;98276.06;;;19.41;100.00
70971;BME280;58632;51.718;19.446;2023-08-06T01:40:12;98285.84;;;19.40;100.00
70971;BME280;58632;51.718;19.446;2023-08-06T01:42:38;98296.48;;;19.39;100.00
70971;BME280;58632;51.718;19.446;2023-08-06T01:45:06;98305.98;;;19.33;100.00
70971;BME280;58632;51.718;19.446;2023-08-06T01:47:32;98311.27;;;19.36;100.00
70971;BME280;58632;51.718;19.446;2023-08-06T01:49:57;98323.17;;;19.41;100.00
70971;BME280;58632;51.718;19.446;2023-08-06T01:52:25;98334.36;;;19.40;100.00
70971;BME280;58632;51.718;19.446;2023-08-06T01:54:50;98336.94;;;19.39;100.00
70971;BME280;58632;51.718;19.446;2023-08-06T01:57:18;98309.86;;;19.40;100.00
70971;BME280;58632;51.718;19.446;2023-08-06T01:59:46;98256.21;;;19.37;100.00
70971;BME280;58632;51.718;19.446;2023-08-06T02:02:12;98192.98;;;19.30;100.00
70971;BME280;58632;51.718;19.446;2023-08-06T02:04:38;98122.52;;;19.23;100.00
70971;BME280;58632;51.718;19.446;2023-08-06T02:07:04;98048.63;;;19.19;100.00
70971;BME280;58632;51.718;19.446;2023-08-06T02:09:29;98030.11;;;19.12;100.00
70971;BME280;58632;51.718;19.446;2023-08-06T02:11:57;98015.59;;;19.04;100.00
70971;BME280;58632;51.718;19.446;2023-08-06T02:14:23;98001.77;;;18.96;100.00
70971;BME280;58632;51.718;19.446;2023-08-06T02:16:48;97963.16;;;18.92;100.00
70971;BME280;58632;51.718;19.446;2023-08-06T02:19:15;97933.24;;;18.90;100.00
70971;BME280;58632;51.718;19.446;2023-08-06T02:21:40;97920.23;;;18.87;100.00
70971;BME280;58632;51.718;19.446;2023-08-06T02:24:06;97909.13;;;18.88;100.00
70971;BME280;58632;51.718;19.446;2023-08-06T02:26:32;97894.20;;;18.90;100.00
70971;BME280;58632;51.718;19.446;2023-08-06T02:28:57;97880.49;;;18.94;100.00
70971;BME280;58632;51.718;19.446;2023-08-06T02:31:23;97873.76;;;18.98;100.00
70971;BME280;58632;51.718;19.446;2023-08-06T02:33:48;97881.98;;;19.04;100.00
70971;BME280;58632;51.718;19.446;2023-08-06T02:36:14;97888.22;;;19.09;100.00
70971;BME280;58632;51.718;19.446;2023-08-06T02:38:39;97906.92;;;19.17;100.00
70971;BME280;58632;51.718;19.446;2023-08-06T02:41:05;97922.84;;;19.23;100.00
70971;BME280;58632;51.718;19.446;2023-08-06T02:43:32;97958.05;;;19.22;100.00
70971;BME280;58632;51.718;19.446;2023-08-06T02:45:59;97982.87;;;19.12;100.00
70971;BME280;58632;51.718;19.446;2023-08-06T02:48:25;98003.27;;;19.05;100.00
70971;BME280;58632;51.718;19.446;2023-08-06T02:50:51;98024.49;;;19.02;100.00
70971;BME280;58632;51.718;19.446;2023-08-06T02:53:16;98054.36;;;19.02;100.00
70971;BME280;58632;51.718;19.446;2023-08-06T02:55:48;98079.70;;;19.03;100.00
70971;BME280;58632;51.718;19.446;2023-08-06T02:58:16;98070.19;;;19.04;100.00
70971;BME280;58632;51.718;19.446;2023-08-06T03:00:43;98032.22;;;19.04;100.00
70971;BME280;58632;51.718;19.446;2023-08-06T03:03:09;98005.21;;;19.08;100.00
70971;BME280;58632;51.718;19.446;2023-08-06T03:05:35;97997.33;;;19.16;100.00
70971;BME280;58632;51.718;19.446;2023-08-06T03:08:01;97984.05;;;19.21;100.00
70971;BME280;58632;51.718;19.446;2023-08-06T03:10:26;97976.95;;;19.28;100.00
70971;BME280;58632;51.718;19.446;2023-08-06T03:12:52;97976.08;;;19.37;100.00
70971;BME280;58632;51.718;19.446;2023-08-06T03:15:18;97970.74;;;19.43;100.00
70971;BME280;58632;51.718;19.446;2023-08-06T03:17:43;97960.84;;;19.42;100.00
70971;BME280;58632;51.718;19.446;2023-08-06T03:20:09;97962.66;;;19.42;100.00
70971;BME280;58632;51.718;19.446;2023-08-06T03:22:35;97962.94;;;19.45;100.00
70971;BME280;58632;51.718;19.446;2023-08-06T03:25:01;97965.33;;;19.48;100.00
70971;BME280;58632;51.718;19.446;2023-08-06T03:27:26;97965.96;;;19.52;100.00
70971;BME280;58632;51.718;19.446;2023-08-06T03:29:52;97968.80;;;19.61;100.00
70971;BME280;58632;51.718;19.446;2023-08-06T03:32:18;97963.28;;;19.69;100.00
70971;BME280;58632;51.718;19.446;2023-08-06T03:34:43;97968.48;;;19.79;100.00
70971;BME280;58632;51.718;19.446;2023-08-06T03:37:11;97971.80;;;19.87;100.00
70971;BME280;58632;51.718;19.446;2023-08-06T03:39:36;97975.81;;;19.97;100.00
70971;BME280;58632;51.718;19.446;2023-08-06T03:42:02;97972.95;;;20.04;100.00
70971;BME280;58632;51.718;19.446;2023-08-06T03:44:27;97967.88;;;20.11;100.00
70971;BME280;58632;51.718;19.446;2023-08-06T03:46:53;97970.23;;;20.16;100.00
70971;BME280;58632;51.718;19.446;2023-08-06T03:49:19;97964.67;;;20.20;100.00
70971;BME280;58632;51.718;19.446;2023-08-06T03:51:45;97964.08;;;20.25;100.00
70971;BME280;58632;51.718;19.446;2023-08-06T03:54:12;97969.50;;;20.27;100.00
70971;BME280;58632;51.718;19.446;2023-08-06T03:56:37;97964.67;;;20.31;100.00
70971;BME280;58632;51.718;19.446;2023-08-06T03:59:03;97962.83;;;20.32;100.00
70971;BME280;58632;51.718;19.446;2023-08-06T04:01:28;97967.48;;;20.33;100.00
70971;BME280;58632;51.718;19.446;2023-08-06T04:03:54;97968.73;;;20.38;100.00
70971;BME280;58632;51.718;19.446;2023-08-06T04:06:19;97963.35;;;20.47;100.00
70971;BME280;58632;51.718;19.446;2023-08-06T04:08:45;97959.08;;;20.54;100.00
70971;BME280;58632;51.718;19.446;2023-08-06T04:11:10;97959.35;;;20.62;100.00
70971;BME280;58632;51.718;19.446;2023-08-06T04:13:37;97956.60;;;20.65;100.00
70971;BME280;58632;51.718;19.446;2023-08-06T04:16:03;97958.13;;;20.58;100.00
70971;BME280;58632;51.718;19.446;2023-08-06T04:18:29;97958.14;;;20.53;100.00
70971;BME280;58632;51.718;19.446;2023-08-06T04:20:55;97955.34;;;20.54;100.00
70971;BME280;58632;51.718;19.446;2023-08-06T04:23:24;97956.34;;;20.56;100.00
70971;BME280;58632;51.718;19.446;2023-08-06T04:25:50;97951.56;;;20.56;100.00
70971;BME280;58632;51.718;19.446;2023-08-06T04:28:15;97952.05;;;20.51;100.00
70971;BME280;58632;51.718;19.446;2023-08-06T04:30:41;97950.35;;;20.43;100.00
70971;BME280;58632;51.718;19.446;2023-08-06T04:33:06;97941.90;;;20.44;100.00
70971;BME280;58632;51.718;19.446;2023-08-06T04:35:32;97943.05;;;20.42;100.00
70971;BME280;58632;51.718;19.446;2023-08-06T04:37:58;97940.89;;;20.32;100.00
70971;BME280;58632;51.718;19.446;2023-08-06T04:40:23;97934.63;;;20.28;100.00
70971;BME280;58632;51.718;19.446;2023-08-06T04:42:52;97935.06;;;20.27;100.00
70971;BME280;58632;51.718;19.446;2023-08-06T04:45:17;97930.95;;;20.30;100.00
70971;BME280;58632;51.718;19.446;2023-08-06T04:47:45;97928.80;;;20.33;100.00
70971;BME280;58632;51.718;19.446;2023-08-06T04:50:10;97927.73;;;20.38;100.00
70971;BME280;58632;51.718;19.446;2023-08-06T04:52:38;97933.23;;;20.45;100.00
70971;BME280;58632;51.718;19.446;2023-08-06T04:55:04;97932.62;;;20.50;100.00
70971;BME280;58632;51.718;19.446;2023-08-06T04:57:31;97929.64;;;20.52;100.00
70971;BME280;58632;51.718;19.446;2023-08-06T05:00:00;97928.70;;;20.51;100.00
70971;BME280;58632;51.718;19.446;2023-08-06T05:02:25;97925.55;;;20.47;100.00
70971;BME280;58632;51.718;19.446;2023-08-06T05:04:51;97920.63;;;20.47;100.00
70971;BME280;58632;51.718;19.446;2023-08-06T05:07:16;97919.05;;;20.46;100.00
70971;BME280;58632;51.718;19.446;2023-08-06T05:09:42;97910.77;;;20.44;100.00
70971;BME280;58632;51.718;19.446;2023-08-06T05:12:08;97902.35;;;20.47;100.00
70971;BME280;58632;51.718;19.446;2023-08-06T05:14:33;97898.77;;;20.54;100.00
70971;BME280;58632;51.718;19.446;2023-08-06T05:17:01;97903.20;;;20.55;100.00
70971;BME280;58632;51.718;19.446;2023-08-06T05:19:28;97898.44;;;20.55;100.00
70971;BME280;58632;51.718;19.446;2023-08-06T05:21:53;97896.14;;;20.55;100.00
70971;BME280;58632;51.718;19.446;2023-08-06T05:24:19;97890.83;;;20.58;100.00
70971;BME280;58632;51.718;19.446;2023-08-06T05:26:44;97893.98;;;20.59;100.00
70971;BME280;58632;51.718;19.446;2023-08-06T05:29:13;97891.45;;;20.68;100.00
70971;BME280;58632;51.718;19.446;2023-08-06T05:31:38;97887.35;;;20.73;100.00
70971;BME280;58632;51.718;19.446;2023-08-06T05:34:04;97880.52;;;20.76;100.00
70971;BME280;58632;51.718;19.446;2023-08-06T05:36:29;97884.96;;;20.80;100.00
70971;BME280;58632;51.718;19.446;2023-08-06T05:38:55;97879.30;;;20.78;100.00
70971;BME280;58632;51.718;19.446;2023-08-06T05:41:21;97869.65;;;20.81;100.00
70971;BME280;58632;51.718;19.446;2023-08-06T05:43:46;97871.57;;;20.90;100.00
70971;BME280;58632;51.718;19.446;2023-08-06T05:46:12;97866.38;;;20.91;100.00
70971;BME280;58632;51.718;19.446;2023-08-06T05:48:37;97867.73;;;20.94;100.00
70971;BME280;58632;51.718;19.446;2023-08-06T05:51:05;97865.31;;;21.02;100.00
70971;BME280;58632;51.718;19.446;2023-08-06T05:53:31;97866.48;;;21.08;100.00
70971;BME280;58632;51.718;19.446;2023-08-06T05:55:57;97860.65;;;21.12;100.00
70971;BME280;58632;51.718;19.446;2023-08-06T05:58:22;97857.65;;;21.20;100.00
70971;BME280;58632;51.718;19.446;2023-08-06T06:00:51;97862.73;;;21.26;100.00
70971;BME280;58632;51.718;19.446;2023-08-06T06:03:17;97868.85;;;21.26;100.00
70971;BME280;58632;51.718;19.446;2023-08-06T06:05:43;97854.95;;;21.26;100.00
70971;BME280;58632;51.718;19.446;2023-08-06T06:08:08;97840.25;;;21.31;100.00
70971;BME280;58632;51.718;19.446;2023-08-06T06:10:35;97835.39;;;21.31;100.00
70971;BME280;58632;51.718;19.446;2023-08-06T06:13:00;97838.29;;;21.30;100.00
70971;BME280;58632;51.718;19.446;2023-08-06T06:15:26;97837.92;;;21.23;100.00
70971;BME280;58632;51.718;19.446;2023-08-06T06:17:51;97836.31;;;21.18;100.00
70971;BME280;58632;51.718;19.446;2023-08-06T06:20:17;97827.16;;;21.24;100.00
70971;BME280;58632;51.718;19.446;2023-08-06T06:22:42;97817.05;;;21.39;100.00
70971;BME280;58632;51.718;19.446;2023-08-06T06:25:08;97807.75;;;21.50;100.00
70971;BME280;58632;51.718;19.446;2023-08-06T06:27:35;97806.59;;;21.62;100.00
70971;BME280;58632;51.718;19.446;2023-08-06T06:30:00;97806.08;;;21.73;100.00
70971;BME280;58632;51.718;19.446;2023-08-06T06:32:26;97805.63;;;21.75;100.00
70971;BME280;58632;51.718;19.446;2023-08-06T06:34:51;97801.44;;;21.75;100.00
70971;BME280;58632;51.718;19.446;2023-08-06T06:37:17;97795.09;;;21.74;100.00
70971;BME280;58632;51.718;19.446;2023-08-06T06:39:43;97797.81;;;21.78;100.00
70971;BME280;58632;51.718;19.446;2023-08-06T06:42:09;97790.44;;;21.70;100.00
70971;BME280;58632;51.718;19.446;2023-08-06T06:44:35;97787.89;;;21.65;100.00
70971;BME280;58632;51.718;19.446;2023-08-06T06:47:01;97782.91;;;21.56;100.00
70971;BME280;58632;51.718;19.446;2023-08-06T06:49:29;97781.42;;;21.58;100.00
70971;BME280;58632;51.718;19.446;2023-08-06T06:51:55;97780.42;;;21.51;100.00
70971;BME280;58632;51.718;19.446;2023-08-06T06:54:21;97785.22;;;21.43;100.00
70971;BME280;58632;51.718;19.446;2023-08-06T06:56:46;97780.73;;;21.38;100.00
70971;BME280;58632;51.718;19.446;2023-08-06T06:59:14;97776.84;;;21.37;100.00
70971;BME280;58632;51.718;19.446;2023-08-06T07:01:42;97773.59;;;21.43;100.00
70971;BME280;58632;51.718;19.446;2023-08-06T07:04:09;97776.33;;;21.50;100.00
70971;BME280;58632;51.718;19.446;2023-08-06T07:06:37;97772.01;;;21.56;100.00
70971;BME280;58632;51.718;19.446;2023-08-06T07:09:03;97772.05;;;21.65;100.00
70971;BME280;58632;51.718;19.446;2023-08-06T07:11:29;97769.80;;;21.76;100.00
70971;BME280;58632;51.718;19.446;2023-08-06T07:13:57;97764.27;;;21.77;100.00
70971;BME280;58632;51.718;19.446;2023-08-06T07:16:24;97760.73;;;21.76;100.00
